createdAt,value
2018-12-19T00:02:11.306Z,1.91
2018-12-19T00:04:40.254Z,1.89
2018-12-19T00:07:09.002Z,1.92
2018-12-19T00:09:38.041Z,1.94
2018-12-19T00:12:07.135Z,1.91
2018-12-19T00:14:35.902Z,1.94
2018-12-19T00:17:04.710Z,1.98
2018-12-19T00:19:33.716Z,2.03
2018-12-19T00:22:02.502Z,2.08
2018-12-19T00:24:31.699Z,2.14
2018-12-19T00:27:00.449Z,2.17
2018-12-19T00:29:29.373Z,2.19
2018-12-19T00:31:58.169Z,2.20
2018-12-19T00:34:26.994Z,2.25
2018-12-19T00:36:55.949Z,2.26
2018-12-19T00:39:24.712Z,2.29
2018-12-19T00:41:53.669Z,2.29
2018-12-19T00:44:22.719Z,2.29
2018-12-19T00:46:51.456Z,2.30
2018-12-19T00:49:20.403Z,2.36
2018-12-19T00:51:49.494Z,2.40
2018-12-19T00:54:18.214Z,2.45
2018-12-19T00:56:47.236Z,2.42
2018-12-19T00:59:16.460Z,2.35
2018-12-19T01:01:45.259Z,2.37
2018-12-19T01:04:14.350Z,2.44
2018-12-19T01:06:43.057Z,2.41
2018-12-19T01:09:15.902Z,2.43
2018-12-19T01:11:42.710Z,2.44
2018-12-19T01:14:11.680Z,2.41
2018-12-19T01:16:40.654Z,2.42
2018-12-19T01:19:09.749Z,2.42
2018-12-19T01:21:38.564Z,2.44
2018-12-19T01:24:07.542Z,2.42
2018-12-19T01:26:36.322Z,2.42
2018-12-19T01:29:05.162Z,2.41
2018-12-19T01:31:33.871Z,2.41
2018-12-19T01:34:02.619Z,2.38
2018-12-19T01:36:31.602Z,2.34
2018-12-19T01:39:00.340Z,2.30
2018-12-19T01:41:29.038Z,2.28
2018-12-19T01:43:58.145Z,2.31
2018-12-19T01:46:27.548Z,2.40
2018-12-19T01:48:56.646Z,2.43
2018-12-19T01:51:25.605Z,2.43
2018-12-19T01:53:54.519Z,2.46
2018-12-19T01:56:23.242Z,2.43
2018-12-19T01:58:52.504Z,2.43
2018-12-19T02:01:21.494Z,2.43
2018-12-19T02:03:50.408Z,2.45
2018-12-19T02:06:19.506Z,2.45
2018-12-19T02:08:48.269Z,2.45
2018-12-19T02:11:17.002Z,2.45
2018-12-19T02:13:45.844Z,2.43
2018-12-19T02:16:14.587Z,2.41
2018-12-19T02:18:43.641Z,2.43
2018-12-19T02:21:12.643Z,2.44
2018-12-19T02:23:41.846Z,2.44
2018-12-19T02:26:10.750Z,2.40
2018-12-19T02:28:40.642Z,2.40
2018-12-19T02:31:09.484Z,2.37
2018-12-19T02:33:38.953Z,2.41
2018-12-19T02:36:07.697Z,2.41
2018-12-19T02:38:36.718Z,2.34
2018-12-19T02:41:05.710Z,2.36
2018-12-19T02:43:34.725Z,2.35
2018-12-19T02:46:03.497Z,2.29
2018-12-19T02:48:32.382Z,2.27
2018-12-19T02:51:01.387Z,2.20
2018-12-19T02:53:30.959Z,2.16
2018-12-19T02:56:00.008Z,2.14
2018-12-19T02:58:28.770Z,2.20
2018-12-19T03:00:57.974Z,2.25
2018-12-19T03:03:26.713Z,2.28
2018-12-19T03:05:55.759Z,2.28
2018-12-19T03:08:24.536Z,2.31
2018-12-19T03:10:53.641Z,2.33
2018-12-19T03:13:22.714Z,2.33
2018-12-19T03:15:51.403Z,2.34
2018-12-19T03:18:20.319Z,2.37
2018-12-19T03:20:49.418Z,2.42
2018-12-19T03:23:18.398Z,2.41
2018-12-19T03:25:47.152Z,2.41
2018-12-19T03:28:16.169Z,2.36
2018-12-19T03:30:53.394Z,2.37
2018-12-19T03:33:22.670Z,2.35
2018-12-19T03:35:51.406Z,2.39
2018-12-19T03:38:24.546Z,2.37
2018-12-19T03:40:53.527Z,2.39
2018-12-19T03:43:22.301Z,2.37
2018-12-19T03:45:51.425Z,2.36
2018-12-19T03:48:25.576Z,2.32
2018-12-19T03:50:54.270Z,2.32
2018-12-19T03:53:22.947Z,2.30
2018-12-19T03:55:51.906Z,2.26
2018-12-19T03:58:20.908Z,2.27
2018-12-19T04:00:49.874Z,2.22
2018-12-19T04:03:18.517Z,2.22
2018-12-19T04:05:47.580Z,2.22
2018-12-19T04:08:16.652Z,2.21
2018-12-19T04:10:45.420Z,2.17
2018-12-19T04:13:14.426Z,2.17
2018-12-19T04:15:43.197Z,2.16
2018-12-19T04:18:12.650Z,2.19
2018-12-19T04:20:41.503Z,2.18
2018-12-19T04:23:10.526Z,2.18
2018-12-19T04:25:39.385Z,2.23
2018-12-19T04:28:08.452Z,2.22
2018-12-19T04:30:40.108Z,2.24
2018-12-19T04:33:09.224Z,2.21
2018-12-19T04:35:39.289Z,2.19
2018-12-19T04:38:08.285Z,2.13
2018-12-19T04:40:37.278Z,2.11
2018-12-19T04:43:06.469Z,2.15
2018-12-19T04:45:35.309Z,2.14
2018-12-19T04:48:04.302Z,2.13
2018-12-19T04:50:33.265Z,2.13
2018-12-19T04:53:02.503Z,2.15
2018-12-19T04:55:31.271Z,2.17
2018-12-19T04:58:00.755Z,2.17
2018-12-19T05:00:29.542Z,2.18
2018-12-19T05:02:58.739Z,2.18
2018-12-19T05:05:27.707Z,2.16
2018-12-19T05:07:57.136Z,2.15
2018-12-19T05:10:26.104Z,2.17
2018-12-19T05:12:55.120Z,2.19
2018-12-19T05:15:24.212Z,2.22
2018-12-19T05:17:52.902Z,2.23
2018-12-19T05:20:21.846Z,2.25
2018-12-19T05:22:50.816Z,2.26
2018-12-19T05:25:19.984Z,2.31
2018-12-19T05:27:48.866Z,2.31
2018-12-19T05:30:17.675Z,2.36
2018-12-19T05:32:46.359Z,2.37
2018-12-19T05:35:15.341Z,2.40
2018-12-19T05:37:44.741Z,2.38
2018-12-19T05:40:18.848Z,2.37
2018-12-19T05:42:44.452Z,2.33
2018-12-19T05:45:13.207Z,2.32
2018-12-19T05:47:42.657Z,2.35
2018-12-19T05:50:12.106Z,2.40
2018-12-19T05:52:41.376Z,2.38
2018-12-19T05:55:10.468Z,2.37
2018-12-19T05:57:39.672Z,2.36
2018-12-19T06:00:09.794Z,2.35
2018-12-19T06:02:38.842Z,2.45
2018-12-19T06:05:07.879Z,2.47
2018-12-19T06:07:36.636Z,2.45
2018-12-19T06:10:06.081Z,2.47
2018-12-19T06:12:34.927Z,2.51
2018-12-19T06:15:04.970Z,2.57
2018-12-19T06:17:33.971Z,2.53
2018-12-19T06:20:03.066Z,2.51
2018-12-19T06:22:32.265Z,2.52
2018-12-19T06:25:01.561Z,2.54
2018-12-19T06:27:30.355Z,2.55
2018-12-19T06:29:59.456Z,2.56
2018-12-19T06:32:28.239Z,2.61
2018-12-19T06:34:57.330Z,2.66
2018-12-19T06:37:26.087Z,2.67
2018-12-19T06:39:55.011Z,2.68
2018-12-19T06:42:23.899Z,2.68
2018-12-19T06:44:52.676Z,2.70
2018-12-19T06:47:21.684Z,2.72
2018-12-19T06:49:50.414Z,2.74
2018-12-19T06:52:19.570Z,2.76
2018-12-19T06:54:49.574Z,2.76
2018-12-19T06:57:18.662Z,2.81
2018-12-19T06:59:47.678Z,2.80
2018-12-19T07:02:16.771Z,2.84
2018-12-19T07:04:45.665Z,2.93
2018-12-19T07:07:14.495Z,2.92
2018-12-19T07:09:43.439Z,2.87
2018-12-19T07:12:12.471Z,2.89
2018-12-19T07:14:42.250Z,2.95
2018-12-19T07:17:11.348Z,2.99
2018-12-19T07:19:40.302Z,3.02
2018-12-19T07:22:09.439Z,3.02
2018-12-19T07:24:38.118Z,3.05
2018-12-19T07:27:07.110Z,3.07
2018-12-19T07:29:35.868Z,3.08
2018-12-19T07:32:04.890Z,3.10
2018-12-19T07:34:33.960Z,3.08
2018-12-19T07:37:03.081Z,3.09
2018-12-19T07:39:31.855Z,3.10
2018-12-19T07:42:00.761Z,3.11
2018-12-19T07:44:29.620Z,3.13
2018-12-19T07:46:58.760Z,3.09
2018-12-19T07:49:27.842Z,3.10
2018-12-19T07:51:56.997Z,3.13
2018-12-19T07:54:26.046Z,3.18
2018-12-19T07:56:55.444Z,3.25
2018-12-19T07:59:24.446Z,3.23
2018-12-19T08:01:53.946Z,3.37
2018-12-19T08:04:23.043Z,3.37
2018-12-19T08:06:52.558Z,3.46
2018-12-19T08:09:21.633Z,3.64
2018-12-19T08:11:50.753Z,3.63
2018-12-19T08:14:19.925Z,3.62
2018-12-19T08:16:48.835Z,3.75
2018-12-19T08:19:17.922Z,3.84
2018-12-19T08:21:47.222Z,3.97
2018-12-19T08:24:16.517Z,4.04
2018-12-19T08:26:45.370Z,4.03
2018-12-19T08:29:14.666Z,4.13
2018-12-19T08:31:44.133Z,4.16
2018-12-19T08:34:13.144Z,4.26
2018-12-19T08:36:42.435Z,4.32
2018-12-19T08:39:11.928Z,4.34
2018-12-19T08:41:41.533Z,4.26
2018-12-19T08:44:10.552Z,4.13
2018-12-19T08:46:39.387Z,4.15
2018-12-19T08:49:08.160Z,4.27
2018-12-19T08:51:36.847Z,4.27
2018-12-19T08:54:05.665Z,4.25
2018-12-19T08:56:34.657Z,4.31
2018-12-19T08:59:03.720Z,4.34
2018-12-19T09:01:34.399Z,4.41
2018-12-19T09:04:03.485Z,4.57
2018-12-19T09:06:32.955Z,4.59
2018-12-19T09:09:02.298Z,4.49
2018-12-19T09:11:31.301Z,4.46
2018-12-19T09:14:00.118Z,4.47
2018-12-19T09:16:29.381Z,4.36
2018-12-19T09:18:58.440Z,4.30
2018-12-19T09:21:27.505Z,4.34
2018-12-19T09:23:56.657Z,4.46
2018-12-19T09:26:25.671Z,4.66
2018-12-19T09:28:54.885Z,4.76
2018-12-19T09:31:23.961Z,4.76
2018-12-19T09:33:52.632Z,4.62
2018-12-19T09:36:21.639Z,4.78
2018-12-19T09:38:50.798Z,4.97
2018-12-19T09:41:19.776Z,5.07
2018-12-19T09:43:49.115Z,4.99
2018-12-19T09:46:18.042Z,4.77
2018-12-19T09:48:47.115Z,4.61
2018-12-19T09:51:15.926Z,4.58
2018-12-19T09:53:45.008Z,4.71
2018-12-19T09:56:13.860Z,4.91
2018-12-19T09:58:42.575Z,4.76
2018-12-19T10:01:11.370Z,4.78
2018-12-19T10:03:40.516Z,4.82
2018-12-19T10:06:09.377Z,4.90
2018-12-19T10:08:38.382Z,5.00
2018-12-19T10:11:07.580Z,5.03
2018-12-19T10:13:36.864Z,4.98
2018-12-19T10:16:05.639Z,4.89
2018-12-19T10:18:34.727Z,5.04
2018-12-19T10:21:04.019Z,5.17
2018-12-19T10:23:32.851Z,5.18
2018-12-19T10:26:06.802Z,5.11
2018-12-19T10:28:36.356Z,5.14
2018-12-19T10:31:05.611Z,5.22
2018-12-19T10:33:34.642Z,5.37
2018-12-19T10:36:03.849Z,5.25
2018-12-19T10:38:32.732Z,5.19
2018-12-19T10:41:01.534Z,5.31
2018-12-19T10:43:30.600Z,5.37
2018-12-19T10:45:59.262Z,5.47
2018-12-19T10:48:28.274Z,5.47
2018-12-19T10:50:57.375Z,5.33
2018-12-19T10:53:26.439Z,5.37
2018-12-19T10:55:55.474Z,5.33
2018-12-19T10:58:24.252Z,5.52
2018-12-19T11:00:58.482Z,5.56
2018-12-19T11:03:27.588Z,5.40
2018-12-19T11:05:56.671Z,5.44
2018-12-19T11:08:25.862Z,5.45
2018-12-19T11:10:54.951Z,5.54
2018-12-19T11:13:23.775Z,5.55
2018-12-19T11:15:53.415Z,5.61
2018-12-19T11:18:22.729Z,5.51
2018-12-19T11:20:52.014Z,5.52
2018-12-19T11:23:21.270Z,5.55
2018-12-19T11:25:50.194Z,5.62
2018-12-19T11:28:19.071Z,5.60
2018-12-19T11:30:47.787Z,5.55
2018-12-19T11:33:16.437Z,5.55
2018-12-19T11:35:45.515Z,5.73
2018-12-19T11:38:14.508Z,5.66
2018-12-19T11:40:43.765Z,5.55
2018-12-19T11:43:12.630Z,5.56
2018-12-19T11:45:41.839Z,5.61
2018-12-19T11:48:10.654Z,5.71
2018-12-19T11:50:39.621Z,5.70
2018-12-19T11:53:08.684Z,5.56
2018-12-19T11:55:37.771Z,5.45
2018-12-19T11:58:06.617Z,5.61
2018-12-19T12:00:42.423Z,5.74
2018-12-19T12:03:11.780Z,5.75
2018-12-19T12:05:40.602Z,5.79
2018-12-19T12:08:09.676Z,5.81
2018-12-19T12:10:38.699Z,5.84
2018-12-19T12:13:07.887Z,5.96
2018-12-19T12:15:36.886Z,5.96
2018-12-19T12:18:05.670Z,5.89
2018-12-19T12:20:34.364Z,5.84
2018-12-19T12:23:03.691Z,5.72
2018-12-19T12:25:32.958Z,5.80
2018-12-19T12:28:01.997Z,5.74
2018-12-19T12:30:30.685Z,5.71
2018-12-19T12:32:59.854Z,5.81
2018-12-19T12:35:28.930Z,5.82
2018-12-19T12:37:57.634Z,5.87
2018-12-19T12:40:26.710Z,5.81
2018-12-19T12:42:57.082Z,5.81
2018-12-19T12:45:26.130Z,5.91
2018-12-19T12:47:55.426Z,5.90
2018-12-19T12:50:24.637Z,5.95
2018-12-19T12:52:53.543Z,5.75
2018-12-19T12:55:22.299Z,5.74
2018-12-19T12:57:51.078Z,5.66
2018-12-19T13:00:20.142Z,5.65
2018-12-19T13:02:48.894Z,5.66
2018-12-19T13:05:18.314Z,5.66
2018-12-19T13:07:47.282Z,5.73
2018-12-19T13:10:16.034Z,5.76
2018-12-19T13:12:45.501Z,5.83
2018-12-19T13:15:18.605Z,5.90
2018-12-19T13:17:47.768Z,5.89
2018-12-19T13:20:17.283Z,5.78
2018-12-19T13:22:46.502Z,5.70
2018-12-19T13:25:15.473Z,5.70
2018-12-19T13:27:44.721Z,5.77
2018-12-19T13:30:13.767Z,5.76
2018-12-19T13:32:42.881Z,5.74
2018-12-19T13:35:12.450Z,5.66
2018-12-19T13:37:41.291Z,5.63
2018-12-19T13:40:10.561Z,5.58
2018-12-19T13:42:39.318Z,5.57
2018-12-19T13:45:10.013Z,5.57
2018-12-19T13:47:39.296Z,5.58
2018-12-19T13:50:09.291Z,5.53
2018-12-19T13:52:38.063Z,5.52
2018-12-19T13:55:07.101Z,5.45
2018-12-19T13:57:36.208Z,5.42
2018-12-19T14:00:07.004Z,5.39
2018-12-19T14:02:36.599Z,5.41
2018-12-19T14:05:05.470Z,5.40
2018-12-19T14:07:34.604Z,5.48
2018-12-19T14:10:03.599Z,5.42
2018-12-19T14:12:32.517Z,5.46
2018-12-19T14:15:01.573Z,5.48
2018-12-19T14:17:30.676Z,5.47
2018-12-19T14:19:59.507Z,5.50
2018-12-19T14:22:28.656Z,5.46
2018-12-19T14:24:57.745Z,5.39
2018-12-19T14:27:26.561Z,5.37
2018-12-19T14:29:55.333Z,5.33
2018-12-19T14:32:24.530Z,5.33
2018-12-19T14:34:53.521Z,5.32
2018-12-19T14:37:22.285Z,5.25
2018-12-19T14:39:51.306Z,5.17
2018-12-19T14:42:21.214Z,5.13
2018-12-19T14:44:50.244Z,5.20
2018-12-19T14:47:19.822Z,5.24
2018-12-19T14:49:48.618Z,5.22
2018-12-19T14:52:17.911Z,5.18
2018-12-19T14:54:54.443Z,5.15
2018-12-19T14:57:23.679Z,5.15
2018-12-19T14:59:52.591Z,5.15
2018-12-19T15:02:21.382Z,5.15
2018-12-19T15:04:50.398Z,5.10
2018-12-19T15:07:19.768Z,5.02
2018-12-19T15:09:48.434Z,4.98
2018-12-19T15:12:17.638Z,4.97
2018-12-19T15:14:46.742Z,4.93
2018-12-19T15:17:17.079Z,4.88
2018-12-19T15:19:46.256Z,4.81
2018-12-19T15:22:15.668Z,4.81
2018-12-19T15:24:44.488Z,4.82
2018-12-19T15:27:13.407Z,4.77
2018-12-19T15:29:42.671Z,4.67
2018-12-19T15:32:12.200Z,4.53
2018-12-19T15:34:41.464Z,4.52
2018-12-19T15:37:10.556Z,4.53
2018-12-19T15:39:39.530Z,4.43
2018-12-19T15:42:08.507Z,4.25
2018-12-19T15:44:37.331Z,4.11
2018-12-19T15:47:06.024Z,4.16
2018-12-19T15:49:34.827Z,4.07
2018-12-19T15:52:03.895Z,4.04
2018-12-19T15:54:32.922Z,3.90
2018-12-19T15:57:01.827Z,3.82
2018-12-19T15:59:30.870Z,3.94
2018-12-19T16:01:59.594Z,3.88
2018-12-19T16:04:28.667Z,3.82
2018-12-19T16:06:57.729Z,3.66
2018-12-19T16:09:26.764Z,3.67
2018-12-19T16:11:56.550Z,3.66
2018-12-19T16:14:26.056Z,3.80
2018-12-19T16:16:55.046Z,3.75
2018-12-19T16:19:24.150Z,3.66
2018-12-19T16:21:52.902Z,3.72
2018-12-19T16:24:21.662Z,3.79
2018-12-19T16:26:50.713Z,3.72
2018-12-19T16:29:19.515Z,3.68
2018-12-19T16:31:48.606Z,3.61
2018-12-19T16:34:17.699Z,3.49
2018-12-19T16:36:46.790Z,3.46
2018-12-19T16:39:15.566Z,3.43
2018-12-19T16:41:44.695Z,3.31
2018-12-19T16:44:13.542Z,3.25
2018-12-19T16:46:42.560Z,3.15
2018-12-19T16:49:11.750Z,3.15
2018-12-19T16:51:47.325Z,3.19
2018-12-19T16:54:16.151Z,3.05
2018-12-19T16:56:45.311Z,2.87
2018-12-19T16:59:14.415Z,2.76
2018-12-19T17:01:44.094Z,2.89
2018-12-19T17:04:13.520Z,3.00
2018-12-19T17:06:42.501Z,2.85
2018-12-19T17:09:11.475Z,2.72
2018-12-19T17:11:40.228Z,2.61
2018-12-19T17:14:09.261Z,2.57
2018-12-19T17:16:38.678Z,2.60
2018-12-19T17:19:07.536Z,2.56
2018-12-19T17:21:36.504Z,2.52
2018-12-19T17:24:05.694Z,2.43
2018-12-19T17:26:34.649Z,2.54
2018-12-19T17:29:03.835Z,2.49
2018-12-19T17:31:32.587Z,2.36
2018-12-19T17:34:01.310Z,2.27
2018-12-19T17:36:30.317Z,2.21
2018-12-19T17:38:59.406Z,2.35
2018-12-19T17:41:28.504Z,2.47
2018-12-19T17:43:57.849Z,2.52
2018-12-19T17:46:27.031Z,2.38
2018-12-19T17:48:56.267Z,2.24
2018-12-19T17:51:25.909Z,2.40
2018-12-19T17:53:55.027Z,2.49
2018-12-19T17:56:23.714Z,2.48
2018-12-19T17:58:52.799Z,2.39
2018-12-19T18:01:21.597Z,2.27
2018-12-19T18:03:50.437Z,2.32
2018-12-19T18:06:19.172Z,2.43
2018-12-19T18:08:48.098Z,2.47
2018-12-19T18:11:16.896Z,2.51
2018-12-19T18:13:46.048Z,2.48
2018-12-19T18:16:15.050Z,2.43
2018-12-19T18:18:43.809Z,2.38
2018-12-19T18:21:12.724Z,2.32
2018-12-19T18:23:41.708Z,2.22
2018-12-19T18:26:10.710Z,2.24
2018-12-19T18:28:41.433Z,2.44
2018-12-19T18:31:10.500Z,2.55
2018-12-19T18:33:39.349Z,2.62
2018-12-19T18:36:07.992Z,2.68
2018-12-19T18:38:37.275Z,2.72
2018-12-19T18:41:06.306Z,2.64
2018-12-19T18:43:35.314Z,2.55
2018-12-19T18:46:04.996Z,2.50
2018-12-19T18:48:34.145Z,2.45
2018-12-19T18:51:03.027Z,2.40
2018-12-19T18:53:32.182Z,2.31
2018-12-19T18:56:01.282Z,2.27
2018-12-19T18:58:30.381Z,2.21
2018-12-19T19:00:59.385Z,2.18
2018-12-19T19:03:28.349Z,2.12
2018-12-19T19:05:57.579Z,2.08
2018-12-19T19:08:26.734Z,2.06
2018-12-19T19:10:55.813Z,2.04
2018-12-19T19:13:24.582Z,2.03
2018-12-19T19:15:53.991Z,2.02
2018-12-19T19:18:22.865Z,2.00
2018-12-19T19:20:51.763Z,2.01
2018-12-19T19:23:20.551Z,2.02
2018-12-19T19:25:49.311Z,2.02
2018-12-19T19:28:18.309Z,2.01
2018-12-19T19:30:53.970Z,1.94
2018-12-19T19:33:23.064Z,1.91
2018-12-19T19:35:52.148Z,1.94
2018-12-19T19:38:21.168Z,1.98
2018-12-19T19:40:50.237Z,1.94
2018-12-19T19:43:19.115Z,1.92
2018-12-19T19:45:48.174Z,1.88
2018-12-19T19:48:17.342Z,1.85
2018-12-19T19:50:46.640Z,1.82
2018-12-19T19:53:15.697Z,1.83
2018-12-19T19:55:44.450Z,1.79
2018-12-19T19:58:13.515Z,1.74
2018-12-19T20:00:42.611Z,1.71
2018-12-19T20:03:11.564Z,1.66
2018-12-19T20:05:40.260Z,1.64
2018-12-19T20:08:09.033Z,1.64
2018-12-19T20:10:38.172Z,1.61
2018-12-19T20:13:07.022Z,1.56
2018-12-19T20:15:36.169Z,1.55
2018-12-19T20:18:06.982Z,1.52
2018-12-19T20:20:35.983Z,1.49
2018-12-19T20:23:05.188Z,1.48
2018-12-19T20:25:33.958Z,1.49
2018-12-19T20:28:02.865Z,1.42
2018-12-19T20:30:32.373Z,1.35
2018-12-19T20:33:01.482Z,1.26
2018-12-19T20:35:30.623Z,1.20
2018-12-19T20:37:59.768Z,1.27
2018-12-19T20:40:28.877Z,1.33
2018-12-19T20:42:57.735Z,1.33
2018-12-19T20:45:27.150Z,1.28
2018-12-19T20:47:56.130Z,1.18
2018-12-19T20:50:25.249Z,1.06
2018-12-19T20:52:55.936Z,1.14
2018-12-19T20:55:25.422Z,1.18
2018-12-19T20:57:54.213Z,1.15
2018-12-19T21:00:23.283Z,1.03
2018-12-19T21:02:52.641Z,0.81
2018-12-19T21:05:21.494Z,0.70
2018-12-19T21:07:50.272Z,0.67
2018-12-19T21:10:19.213Z,0.66
2018-12-19T21:12:48.289Z,0.56
2018-12-19T21:15:18.175Z,0.47
2018-12-19T21:17:52.520Z,0.50
2018-12-19T21:20:21.892Z,0.55
2018-12-19T21:22:51.129Z,0.70
2018-12-19T21:25:20.407Z,0.65
2018-12-19T21:27:49.275Z,0.65
2018-12-19T21:30:18.591Z,0.69
2018-12-19T21:32:47.557Z,0.77
2018-12-19T21:35:16.537Z,0.83
2018-12-19T21:37:45.303Z,0.87
2018-12-19T21:40:14.513Z,0.79
2018-12-19T21:42:43.651Z,0.66
2018-12-19T21:45:12.773Z,0.68
2018-12-19T21:47:41.936Z,0.68
2018-12-19T21:50:11.810Z,0.73
2018-12-19T21:52:40.705Z,0.66
2018-12-19T21:55:09.717Z,0.50
2018-12-19T21:57:38.720Z,0.47
2018-12-19T22:00:13.144Z,0.61
2018-12-19T22:02:42.379Z,0.65
2018-12-19T22:05:11.781Z,0.63
2018-12-19T22:07:40.848Z,0.55
2018-12-19T22:10:10.012Z,0.52
2018-12-19T22:12:38.993Z,0.51
2018-12-19T22:15:07.987Z,0.51
2018-12-19T22:17:42.243Z,0.46
2018-12-19T22:20:11.284Z,0.41
2018-12-19T22:22:40.608Z,0.38
2018-12-19T22:25:09.449Z,0.35
2018-12-19T22:27:38.497Z,0.35
2018-12-19T22:30:07.846Z,0.31
2018-12-19T22:32:36.700Z,0.28
2018-12-19T22:35:05.658Z,0.27
2018-12-19T22:37:34.799Z,0.25
2018-12-19T22:40:03.845Z,0.22
2018-12-19T22:42:32.567Z,0.18
2018-12-19T22:45:01.861Z,0.15
2018-12-19T22:47:31.273Z,0.13
2018-12-19T22:50:00.395Z,0.14
2018-12-19T22:52:29.361Z,0.16
2018-12-19T22:54:58.233Z,0.15
2018-12-19T22:57:27.276Z,0.14
2018-12-19T22:59:56.340Z,0.11
2018-12-19T23:02:30.454Z,0.07
2018-12-19T23:04:59.607Z,0.05
2018-12-19T23:07:28.717Z,0.04
2018-12-19T23:09:57.944Z,-0.05
2018-12-19T23:12:26.758Z,-0.09
2018-12-19T23:14:55.652Z,-0.11
2018-12-19T23:17:29.607Z,-0.14
2018-12-19T23:19:58.346Z,-0.15
2018-12-19T23:22:27.127Z,-0.17
2018-12-19T23:24:55.928Z,-0.21
2018-12-19T23:27:25.194Z,-0.25
2018-12-19T23:29:54.417Z,-0.29
2018-12-19T23:32:29.263Z,-0.31
2018-12-19T23:34:58.932Z,-0.36
2018-12-19T23:37:28.006Z,-0.37
2018-12-19T23:39:56.897Z,-0.38
2018-12-19T23:42:26.152Z,-0.41
2018-12-19T23:44:55.522Z,-0.44
2018-12-19T23:47:24.435Z,-0.42
2018-12-19T23:49:53.582Z,-0.42
2018-12-19T23:52:23.040Z,-0.42
2018-12-19T23:54:52.859Z,-0.42
2018-12-19T23:57:21.690Z,-0.42
2018-12-19T23:59:50.683Z,-0.40
